Time;durP1;ratioP1;P1;durP2;ratioP2;P2;SDS_P1;SDS_P2;PMS_P1;PMS_P2;Temp;Humidity;BMP_temperature;BMP_pressure;BME280_temperature;BME280_humidity;BME280_pressure;Samples;Min_cycle;Max_cycle;Signal;HPM_P1;HPM_P2
2023/07/02 00:00:08;;;;;;;12.75;5.40;;;;;;;17.67;79.99;100550.16;5059658;28;20073;-76
2023/07/02 00:02:37;;;;;;;15.20;6.13;;;;;;;17.66;79.92;100562.63;5058787;28;20656;-76
2023/07/02 00:05:06;;;;;;;14.60;6.28;;;;;;;17.64;79.98;100553.03;5065112;28;20055;-76
2023/07/02 00:07:35;;;;;;;14.32;6.93;;;;;;;17.62;80.12;100552.25;5066668;28;20541;-76
2023/07/02 00:10:04;;;;;;;13.82;6.18;;;;;;;17.62;80.10;100546.94;5066277;28;20128;-76
2023/07/02 00:12:32;;;;;;;12.95;6.50;;;;;;;17.62;80.33;100533.59;5065704;28;20045;-76
2023/07/02 00:15:01;;;;;;;12.43;6.10;;;;;;;17.62;80.30;100525.59;5065475;28;20506;-76
2023/07/02 00:17:28;;;;;;;15.52;6.82;;;;;;;17.62;79.98;100509.59;5062376;28;20041;-75
2023/07/02 00:19:55;;;;;;;12.48;6.95;;;;;;;17.60;79.37;100507.06;5055106;28;20045;-78
2023/07/02 00:22:22;;;;;;;13.07;6.22;;;;;;;17.56;79.48;100505.53;5063823;28;20071;-78
2023/07/02 00:24:51;;;;;;;15.25;6.80;;;;;;;17.50;79.64;100508.59;5065600;28;20419;-77
2023/07/02 00:27:18;;;;;;;13.95;6.63;;;;;;;17.45;79.62;100500.06;5065531;28;20037;-75
2023/07/02 00:29:45;;;;;;;11.20;5.63;;;;;;;17.40;79.52;100503.00;5065275;28;20428;-74
2023/07/02 00:32:12;;;;;;;13.63;5.90;;;;;;;17.37;79.34;100501.41;5064262;28;20037;-75
2023/07/02 00:34:39;;;;;;;27.20;6.63;;;;;;;17.34;79.71;100482.97;5064095;28;20103;-75
2023/07/02 00:37:07;;;;;;;13.27;6.28;;;;;;;17.30;80.09;100477.91;5064565;28;20489;-74
2023/07/02 00:39:34;;;;;;;12.20;6.20;;;;;;;17.26;79.83;100479.09;5065658;28;20924;-74
2023/07/02 00:42:04;;;;;;;15.05;6.45;;;;;;;17.25;79.89;100496.84;5065236;28;20476;-74
2023/07/02 00:44:31;;;;;;;11.32;6.28;;;;;;;17.24;80.15;100519.16;5064814;28;20102;-74
2023/07/02 00:46:59;;;;;;;12.57;5.93;;;;;;;17.26;80.26;100529.69;5063802;28;20057;-76
2023/07/02 00:49:26;;;;;;;17.58;6.93;;;;;;;17.27;80.27;100534.91;5062666;28;20060;-76
2023/07/02 00:51:55;;;;;;;12.93;6.13;;;;;;;17.32;80.28;100532.81;5065218;28;20044;-77
2023/07/02 00:54:22;;;;;;;17.23;6.60;;;;;;;17.31;80.47;100538.22;5064651;28;20119;-76
2023/07/02 00:56:50;;;;;;;13.27;6.10;;;;;;;17.31;80.27;100546.22;5066110;28;20151;-76
2023/07/02 00:59:17;;;;;;;12.95;6.88;;;;;;;17.34;80.02;100551.38;5065688;28;20598;-76
2023/07/02 01:01:49;;;;;;;16.55;7.25;;;;;;;17.34;79.94;100543.38;5074949;28;20114;-76
2023/07/02 01:04:19;;;;;;;14.90;6.32;;;;;;;17.36;79.44;100544.97;5055663;28;20532;-76
2023/07/02 01:06:46;;;;;;;15.23;6.78;;;;;;;17.36;79.34;100544.13;5064867;28;20434;-76
2023/07/02 01:09:13;;;;;;;13.93;6.88;;;;;;;17.34;79.87;100540.72;5066800;28;20478;-76
2023/07/02 01:11:50;;;;;;;18.73;7.38;;;;;;;17.38;79.17;100548.41;5065021;28;20048;-77
2023/07/02 01:14:28;;;;;;;14.05;6.45;;;;;;;17.37;78.97;100549.34;5061508;28;20599;-77
2023/07/02 01:16:58;;;;;;;17.17;7.65;;;;;;;17.36;79.34;100552.13;5066063;28;20140;-77
2023/07/02 01:19:53;;;;;;;13.77;7.55;;;;;;;17.35;79.28;100545.09;5064034;28;20033;-76
2023/07/02 01:22:23;;;;;;;;;;;;;;;17.32;79.21;100545.28;5064036;28;20060;-76
2023/07/02 01:24:52;;;;;;;16.58;7.68;;;;;;;17.29;79.33;100556.16;5063684;28;19971;-76
2023/07/02 01:27:20;;;;;;;22.85;8.52;;;;;;;17.29;79.54;100564.97;5064065;28;20577;-76
2023/07/02 01:29:51;;;;;;;19.77;8.30;;;;;;;17.29;79.06;100561.47;5062386;28;20412;-76
2023/07/02 01:32:20;;;;;;;17.67;8.55;;;;;;;17.27;79.27;100563.38;5058523;28;20093;-76
2023/07/02 01:34:53;;;;;;;18.38;8.82;;;;;;;17.27;79.15;100574.88;5064622;28;20126;-76
2023/07/02 01:37:20;;;;;;;17.92;8.70;;;;;;;17.24;79.43;100572.41;5064552;28;20501;-76
2023/07/02 01:39:47;;;;;;;22.70;9.10;;;;;;;17.21;79.52;100569.94;5063384;28;20045;-74
2023/07/02 01:42:18;;;;;;;20.75;9.07;;;;;;;17.21;79.37;100589.44;5065212;28;20126;-74
2023/07/02 01:44:49;;;;;;;15.82;6.85;;;;;;;17.23;78.10;100592.84;5058343;28;20056;-75
2023/07/02 01:47:16;;;;;;;12.77;5.97;;;;;;;17.15;74.85;100589.81;5067239;28;20534;-74
2023/07/02 01:49:44;;;;;;;12.95;5.32;;;;;;;17.07;72.27;100590.28;5065275;28;20057;-74
2023/07/02 01:52:11;;;;;;;12.13;5.22;;;;;;;16.98;71.99;100590.00;5065417;28;20438;-76
2023/07/02 01:54:38;;;;;;;13.45;5.50;;;;;;;16.90;72.21;100591.28;5067958;28;20115;-76
2023/07/02 01:57:05;;;;;;;11.60;5.30;;;;;;;16.82;72.16;100596.22;5068574;28;20131;-75
2023/07/02 01:59:32;;;;;;;11.73;5.13;;;;;;;16.76;71.23;100596.59;5064638;28;20045;-76
2023/07/02 02:01:59;;;;;;;15.57;5.20;;;;;;;16.69;71.51;100597.91;5067690;28;20523;-75
2023/07/02 02:04:26;;;;;;;10.27;4.97;;;;;;;16.64;71.52;100592.84;5070250;28;20629;-76
2023/07/02 02:06:54;;;;;;;13.20;5.40;;;;;;;16.57;72.21;100596.84;5076601;28;20045;-77
2023/07/02 02:09:21;;;;;;;12.32;5.03;;;;;;;16.53;72.66;100600.66;5079198;28;20099;-77
2023/07/02 02:11:52;;;;;;;13.70;5.40;;;;;;;16.45;72.96;100601.09;5076453;28;20494;-76
2023/07/02 02:14:19;;;;;;;13.88;5.50;;;;;;;16.36;72.92;100593.66;5067810;28;20051;-76
2023/07/02 02:16:46;;;;;;;12.45;6.03;;;;;;;16.29;73.31;100590.50;5068576;28;20044;-78
2023/07/02 02:19:14;;;;;;;12.95;5.53;;;;;;;16.21;73.47;100587.41;5067434;28;20061;-78
2023/07/02 02:21:43;;;;;;;12.80;5.82;;;;;;;16.13;73.60;100588.69;5066417;28;20520;-78
2023/07/02 02:24:11;;;;;;;15.25;5.78;;;;;;;16.04;74.21;100597.22;5066676;28;20069;-78
2023/07/02 02:26:38;;;;;;;11.95;5.72;;;;;;;15.96;74.78;100603.00;5068046;28;20119;-78
2023/07/02 02:29:05;;;;;;;13.05;5.78;;;;;;;15.88;74.92;100597.22;5067336;28;20045;-78
2023/07/02 02:31:32;;;;;;;12.32;5.85;;;;;;;15.79;75.39;100595.06;5067603;28;20520;-78
2023/07/02 02:34:01;;;;;;;17.58;6.40;;;;;;;15.72;75.51;100599.00;5066588;28;20049;-80
2023/07/02 02:36:29;;;;;;;15.32;5.95;;;;;;;15.64;75.81;100602.09;5069226;28;20498;-79
2023/07/02 02:38:56;;;;;;;16.70;6.40;;;;;;;15.58;75.83;100599.78;5071749;28;20072;-81
2023/07/02 02:41:25;;;;;;;12.77;6.07;;;;;;;15.54;76.47;100601.75;5085611;28;20079;-81
2023/07/02 02:43:53;;;;;;;19.05;7.05;;;;;;;15.51;76.61;100601.91;5081354;28;20049;-80
2023/07/02 02:46:22;;;;;;;15.25;6.97;;;;;;;15.50;77.40;100601.06;5071595;28;20097;-82
2023/07/02 02:48:51;;;;;;;18.63;7.18;;;;;;;15.52;77.40;100598.31;5083350;28;20552;-83
2023/07/02 02:51:18;;;;;;;16.08;6.60;;;;;;;15.53;77.88;100594.72;5075899;28;20049;-82
2023/07/02 02:53:46;;;;;;;14.10;6.63;;;;;;;15.56;77.95;100597.22;5072651;28;20288;-81
2023/07/02 02:56:13;;;;;;;13.73;6.53;;;;;;;15.61;78.17;100604.94;5072620;28;20041;-82
2023/07/02 02:58:41;;;;;;;16.75;7.07;;;;;;;15.61;78.59;100602.28;5068535;28;20040;-80
2023/07/02 03:01:11;;;;;;;18.25;7.05;;;;;;;15.63;78.40;100603.91;5081671;28;20048;-80
2023/07/02 03:03:45;;;;;;;13.77;6.75;;;;;;;15.63;78.51;100614.53;5061998;28;20079;-80
2023/07/02 03:06:16;;;;;;;16.20;7.60;;;;;;;15.64;78.84;100613.59;5066111;28;20096;-81
2023/07/02 03:08:43;;;;;;;21.17;8.13;;;;;;;15.67;79.35;100616.06;5069057;28;20047;-80
2023/07/02 03:11:10;;;;;;;16.27;7.65;;;;;;;15.68;79.22;100619.59;5065685;28;20047;-80
2023/07/02 03:13:38;;;;;;;18.73;8.00;;;;;;;15.68;79.55;100615.13;5067079;28;20094;-80
2023/07/02 03:16:05;;;;;;;14.38;8.18;;;;;;;15.71;79.77;100616.75;5065821;28;20044;-81
2023/07/02 03:18:32;;;;;;;22.92;10.32;;;;;;;15.74;80.20;100621.03;5066077;28;20124;-83
2023/07/02 03:21:00;;;;;;;22.98;12.25;;;;;;;15.75;80.95;100617.44;5065885;28;20123;-82
2023/07/02 03:23:27;;;;;;;23.17;11.30;;;;;;;15.74;80.99;100621.03;5067383;28;20059;-82
2023/07/02 03:25:54;;;;;;;23.45;11.52;;;;;;;15.73;81.70;100624.63;5066744;28;20052;-80
2023/07/02 03:28:21;;;;;;;24.10;11.32;;;;;;;15.74;82.34;100632.50;5067470;28;20151;-82
2023/07/02 03:30:48;;;;;;;23.13;12.32;;;;;;;15.76;82.72;100629.78;5067939;28;20501;-80
2023/07/02 03:33:15;;;;;;;25.70;13.23;;;;;;;15.78;82.62;100639.38;5065749;28;20064;-81
2023/07/02 03:35:42;;;;;;;25.67;12.60;;;;;;;15.82;82.96;100640.06;5067542;28;20048;-79
2023/07/02 03:38:10;;;;;;;24.90;12.60;;;;;;;15.85;83.44;100642.59;5068006;28;20068;-79
2023/07/02 03:40:37;;;;;;;25.70;13.00;;;;;;;15.90;83.80;100648.50;5066128;28;20111;-80
2023/07/02 03:43:04;;;;;;;21.77;12.77;;;;;;;15.96;83.47;100652.63;5067339;28;20049;-79
2023/07/02 03:45:32;;;;;;;26.60;12.65;;;;;;;15.96;83.29;100648.19;5065470;28;20060;-80
2023/07/02 03:47:59;;;;;;;27.65;13.20;;;;;;;15.99;83.52;100655.13;5066722;28;20131;-78
2023/07/02 03:50:26;;;;;;;24.85;12.80;;;;;;;16.00;83.35;100656.84;5066017;28;20053;-76
2023/07/02 03:52:53;;;;;;;24.90;12.68;;;;;;;16.01;83.84;100653.25;5067388;28;20107;-76
2023/07/02 03:55:20;;;;;;;25.15;12.38;;;;;;;15.97;83.96;100652.53;5067745;28;20150;-77
2023/07/02 03:57:47;;;;;;;22.08;12.07;;;;;;;15.97;83.75;100657.84;5068576;28;20045;-80
2023/07/02 04:00:15;;;;;;;28.17;12.73;;;;;;;15.95;83.49;100656.22;5064661;28;20107;-79
2023/07/02 04:02:42;;;;;;;29.58;12.75;;;;;;;15.92;83.16;100659.06;5067019;28;20041;-78
2023/07/02 04:05:09;;;;;;;24.52;12.10;;;;;;;15.93;82.93;100674.06;5064945;28;20045;-79
2023/07/02 04:07:36;;;;;;;23.27;12.70;;;;;;;15.92;82.66;100669.72;5068178;28;20049;-79
2023/07/02 04:10:04;;;;;;;24.65;12.15;;;;;;;15.93;82.47;100674.94;5065749;28;20671;-78
2023/07/02 04:12:31;;;;;;;23.35;11.95;;;;;;;16.05;81.97;100680.50;5067423;28;20037;-78
2023/07/02 04:14:58;;;;;;;20.52;11.70;;;;;;;16.05;82.11;100677.84;5065658;28;20446;-79
2023/07/02 04:17:25;;;;;;;26.27;12.93;;;;;;;16.08;81.59;100678.53;5067431;28;20728;-79
2023/07/02 04:19:55;;;;;;;26.20;12.98;;;;;;;16.12;81.98;100672.09;5062930;28;20065;-79
2023/07/02 04:22:22;;;;;;;25.95;12.68;;;;;;;16.19;81.90;100675.25;5066861;28;20037;-79
2023/07/02 04:24:49;;;;;;;24.17;12.13;;;;;;;16.24;81.46;100680.31;5067947;28;20598;-80
2023/07/02 04:27:18;;;;;;;25.88;13.65;;;;;;;16.26;81.69;100679.31;5074444;28;20045;-79
2023/07/02 04:30:08;;;;;;;26.38;12.77;;;;;;;16.28;81.51;100679.19;5062403;28;20040;-77
2023/07/02 04:32:36;;;;;;;26.73;13.43;;;;;;;16.32;81.37;100683.41;5067393;28;20048;-77
2023/07/02 04:35:03;;;;;;;28.95;13.43;;;;;;;16.37;81.21;100677.84;5065890;28;20052;-82
2023/07/02 04:37:30;;;;;;;24.58;12.80;;;;;;;16.41;81.10;100690.88;5067772;28;20037;-78
2023/07/02 04:39:57;;;;;;;27.77;14.00;;;;;;;16.43;80.89;100690.78;5064562;28;20466;-77
2023/07/02 04:42:31;;;;;;;26.50;13.27;;;;;;;16.42;80.31;100691.72;5065138;28;20075;-77
2023/07/02 04:45:01;;;;;;;24.05;13.18;;;;;;;16.45;80.02;100695.06;5063007;28;20108;-82
2023/07/02 04:47:29;;;;;;;31.55;13.25;;;;;;;16.49;79.64;100690.41;5057164;28;20071;-81
2023/07/02 04:49:57;;;;;;;23.92;12.88;;;;;;;16.55;79.63;100699.84;5053533;28;20060;-82
2023/07/02 04:52:24;;;;;;;27.85;12.60;;;;;;;16.68;79.08;100705.34;5064214;28;20457;-80
2023/07/02 04:54:51;;;;;;;26.52;13.68;;;;;;;16.71;79.44;100710.44;5057620;28;20120;-79
2023/07/02 04:57:19;;;;;;;28.92;12.85;;;;;;;16.79;78.74;100707.34;5058252;28;20045;-79
2023/07/02 04:59:46;;;;;;;26.83;12.98;;;;;;;16.94;78.40;100708.28;5058546;28;20048;-78
2023/07/02 05:02:13;;;;;;;26.65;13.07;;;;;;;17.05;78.02;100709.34;5056230;28;20148;-76
2023/07/02 05:04:40;;;;;;;23.05;12.35;;;;;;;17.06;77.41;100702.25;5056377;28;20398;-77
2023/07/02 05:07:07;;;;;;;29.33;12.80;;;;;;;17.23;76.58;100703.88;5056687;28;20439;-77
2023/07/02 05:09:34;;;;;;;23.67;12.48;;;;;;;17.25;76.81;100709.97;5055859;28;20369;-76
2023/07/02 05:12:01;;;;;;;26.40;13.10;;;;;;;17.22;75.86;100713.66;5055424;28;20041;-78
2023/07/02 05:14:28;;;;;;;25.00;11.75;;;;;;;17.25;75.72;100709.97;5062109;28;20078;-77
2023/07/02 05:16:55;;;;;;;24.95;11.75;;;;;;;17.34;75.28;100709.44;5071463;28;20123;-76
2023/07/02 05:19:23;;;;;;;23.83;11.73;;;;;;;17.37;73.70;100708.38;5064872;28;20041;-76
2023/07/02 05:21:49;;;;;;;24.30;12.05;;;;;;;17.34;74.38;100708.56;5067298;28;20108;-77
2023/07/02 05:24:16;;;;;;;22.92;11.98;;;;;;;17.36;74.09;100715.50;5068386;28;20556;-77
2023/07/02 05:26:43;;;;;;;24.63;12.35;;;;;;;17.66;73.24;100714.56;5073397;28;20132;-77
2023/07/02 05:29:10;;;;;;;23.90;12.10;;;;;;;17.84;73.07;100714.38;5069781;28;20041;-78
2023/07/02 05:31:37;;;;;;;26.80;12.32;;;;;;;18.06;71.78;100718.38;5074344;28;20045;-79
2023/07/02 05:34:05;;;;;;;27.48;13.40;;;;;;;17.97;71.64;100718.00;5080374;28;20122;-77
2023/07/02 05:36:32;;;;;;;26.80;13.07;;;;;;;17.82;71.35;100722.47;5068739;28;20076;-79
2023/07/02 05:38:59;;;;;;;24.88;12.57;;;;;;;17.90;71.39;100721.97;5086609;28;20049;-78
2023/07/02 05:41:30;;;;;;;24.17;13.30;;;;;;;17.83;70.92;100737.50;5074301;28;20110;-78
2023/07/02 05:43:58;;;;;;;23.58;12.43;;;;;;;17.81;70.54;100742.06;5077799;28;20052;-79
2023/07/02 05:46:25;;;;;;;25.63;12.60;;;;;;;17.97;70.25;100739.31;5068968;28;20838;-78
2023/07/02 05:48:55;;;;;;;30.48;13.60;;;;;;;18.21;69.50;100741.41;5070080;28;20063;-78
2023/07/02 05:51:24;;;;;;;27.65;13.32;;;;;;;18.27;69.79;100742.81;5066197;28;20041;-77
2023/07/02 05:53:52;;;;;;;27.92;13.90;;;;;;;18.44;68.56;100742.56;5068273;28;20122;-77
2023/07/02 05:56:19;;;;;;;24.92;12.73;;;;;;;18.46;67.07;100746.00;5068684;28;20527;-82
2023/07/02 05:58:46;;;;;;;23.50;10.82;;;;;;;18.34;65.24;100751.28;5074550;28;20033;-81
2023/07/02 06:01:15;;;;;;;23.27;10.98;;;;;;;18.45;64.73;100754.13;5066476;28;20063;-81
2023/07/02 06:03:43;;;;;;;23.55;9.52;;;;;;;18.34;64.33;100764.63;5069177;28;21700;-80
2023/07/02 06:06:11;;;;;;;19.65;8.65;;;;;;;18.24;64.03;100761.69;5067513;28;20072;-80
2023/07/02 06:08:38;;;;;;;20.77;9.52;;;;;;;18.12;63.83;100760.66;5081894;28;20045;-83
2023/07/02 06:11:05;;;;;;;25.45;9.38;;;;;;;18.08;64.77;100753.78;5073086;28;20094;-82
2023/07/02 06:13:33;;;;;;;20.50;8.35;;;;;;;18.33;63.35;100765.59;5065935;28;20077;-84
2023/07/02 06:16:00;;;;;;;20.75;8.82;;;;;;;18.32;62.42;100767.38;5064703;28;20053;-84
2023/07/02 06:18:27;;;;;;;20.50;7.60;;;;;;;18.28;62.59;100774.72;5067814;28;20037;-83
2023/07/02 06:20:55;;;;;;;20.92;8.05;;;;;;;18.24;61.32;100769.69;5064914;28;20581;-84
2023/07/02 06:23:22;;;;;;;19.92;7.88;;;;;;;18.24;61.06;100772.34;5078620;28;20044;-82
2023/07/02 06:25:51;;;;;;;17.25;7.70;;;;;;;18.21;62.82;100777.91;5075439;28;20091;-82
2023/07/02 06:28:19;;;;;;;21.73;8.68;;;;;;;18.25;61.54;100777.63;5068065;28;20578;-81
2023/07/02 06:30:46;;;;;;;19.85;7.60;;;;;;;18.33;61.76;100778.94;5065508;28;20084;-82
2023/07/02 06:33:13;;;;;;;20.48;8.00;;;;;;;18.39;61.61;100779.41;5077006;28;20143;-81
2023/07/02 06:35:40;;;;;;;18.65;7.20;;;;;;;18.49;59.93;100784.13;5070580;28;20488;-80
2023/07/02 06:38:07;;;;;;;20.58;7.10;;;;;;;18.65;59.46;100798.19;5076331;28;20040;-80
2023/07/02 06:40:34;;;;;;;18.48;6.95;;;;;;;18.80;57.87;100787.47;5069459;28;20049;-83
2023/07/02 06:43:01;;;;;;;18.85;7.45;;;;;;;18.88;59.07;100783.31;5068883;28;20060;-79
2023/07/02 06:45:28;;;;;;;20.75;6.97;;;;;;;19.03;57.08;100785.97;5068611;28;20896;-78
2023/07/02 06:47:55;;;;;;;18.23;8.18;;;;;;;18.97;57.21;100789.06;5076479;28;20196;-77
2023/07/02 06:50:22;;;;;;;20.77;7.60;;;;;;;18.93;57.88;100785.72;5074380;28;20059;-76
2023/07/02 06:52:49;;;;;;;17.23;7.30;;;;;;;18.93;58.14;100794.59;5067700;28;20041;-76
2023/07/02 06:55:16;;;;;;;20.15;7.65;;;;;;;18.96;58.08;100801.53;5068356;28;20076;-77
2023/07/02 06:57:45;;;;;;;15.27;5.45;;;;;;;19.04;55.79;100807.22;5069625;28;20156;-77
2023/07/02 07:00:14;;;;;;;18.85;6.63;;;;;;;19.02;55.32;100803.84;5066935;28;20518;-77
2023/07/02 07:02:41;;;;;;;15.98;6.75;;;;;;;19.01;55.88;100798.56;5083484;28;20067;-77
2023/07/02 07:05:09;;;;;;;19.75;6.93;;;;;;;19.02;56.25;100806.50;5069628;28;20203;-76
2023/07/02 07:07:36;;;;;;;19.45;6.45;;;;;;;19.11;56.54;100810.34;5059979;28;20147;-77
2023/07/02 07:10:04;;;;;;;16.17;6.25;;;;;;;19.23;55.14;100817.56;5056184;28;20041;-77
2023/07/02 07:12:32;;;;;;;20.88;7.10;;;;;;;19.30;55.47;100818.00;5068390;28;20045;-78
2023/07/02 07:14:59;;;;;;;18.05;6.65;;;;;;;19.38;54.59;100830.84;5076573;28;20459;-77
2023/07/02 07:17:26;;;;;;;19.70;6.80;;;;;;;19.37;53.69;100813.09;5072957;28;20131;-77
2023/07/02 07:19:53;;;;;;;19.02;6.25;;;;;;;19.30;52.74;100826.03;5058245;28;20045;-80
2023/07/02 07:22:20;;;;;;;15.43;6.00;;;;;;;19.32;53.95;100831.25;5060846;28;20091;-76
2023/07/02 07:24:47;;;;;;;15.90;6.30;;;;;;;19.39;54.63;100829.88;5069228;28;20536;-77
2023/07/02 07:27:15;;;;;;;11.40;5.38;;;;;;;19.49;54.48;100832.78;5083077;28;20061;-79
2023/07/02 07:29:42;;;;;;;12.60;4.45;;;;;;;19.53;49.94;100835.13;5068240;28;20080;-76
2023/07/02 07:32:09;;;;;;;10.77;4.68;;;;;;;19.45;50.85;100840.16;5081683;28;20132;-77
2023/07/02 07:34:36;;;;;;;12.23;6.10;;;;;;;19.45;51.36;100837.50;5071223;28;20111;-77
2023/07/02 07:37:03;;;;;;;11.60;4.88;;;;;;;19.48;51.12;100841.75;5059560;28;20552;-76
2023/07/02 07:39:30;;;;;;;12.55;5.68;;;;;;;19.54;51.05;100839.53;5079748;28;20080;-76
2023/07/02 07:41:57;;;;;;;15.38;6.05;;;;;;;19.66;51.29;100853.03;5079165;28;20670;-75
2023/07/02 07:44:28;;;;;;;14.68;5.43;;;;;;;19.72;51.28;100849.91;5069618;28;20501;-75
2023/07/02 07:46:56;;;;;;;10.90;3.95;;;;;;;19.77;51.14;100847.81;5083747;28;20044;-75
2023/07/02 07:49:23;;;;;;;15.02;5.28;;;;;;;19.82;51.32;100842.13;5073447;28;20059;-74
2023/07/02 07:51:50;;;;;;;12.65;5.50;;;;;;;19.86;51.82;100844.50;5068733;28;20563;-75
2023/07/02 07:54:17;;;;;;;14.07;5.63;;;;;;;19.94;52.13;100840.44;5053350;28;20520;-74
2023/07/02 07:56:44;;;;;;;14.30;6.00;;;;;;;19.97;51.33;100851.78;5061749;28;20425;-75
2023/07/02 07:59:13;;;;;;;14.60;5.78;;;;;;;19.97;51.87;100845.59;5060230;28;20574;-76
2023/07/02 08:01:40;;;;;;;12.48;5.55;;;;;;;20.05;52.05;100848.56;5062890;28;20052;-75
2023/07/02 08:04:07;;;;;;;13.63;6.07;;;;;;;20.07;51.12;100848.44;5047867;28;20046;-75
2023/07/02 08:06:34;;;;;;;12.88;5.65;;;;;;;20.08;50.50;100842.13;5057807;28;20580;-76
2023/07/02 08:09:02;;;;;;;17.67;5.55;;;;;;;20.14;49.57;100847.06;5065917;28;20143;-74
2023/07/02 08:11:30;;;;;;;18.73;6.65;;;;;;;20.14;49.46;100850.59;5051849;28;20154;-78
2023/07/02 08:13:57;;;;;;;13.57;5.78;;;;;;;20.13;50.12;100858.75;5061061;28;20045;-76
2023/07/02 08:16:25;;;;;;;15.65;6.15;;;;;;;20.13;50.53;100848.88;5079972;28;20040;-77
2023/07/02 08:18:52;;;;;;;17.67;5.45;;;;;;;20.14;49.31;100865.81;5086030;28;20099;-77
2023/07/02 08:21:19;;;;;;;15.32;5.93;;;;;;;20.20;50.72;100854.66;5084734;28;20048;-76
2023/07/02 08:23:46;;;;;;;13.43;5.40;;;;;;;20.33;50.29;100860.88;5066990;28;20040;-76
2023/07/02 08:26:14;;;;;;;15.75;5.53;;;;;;;20.44;50.74;100860.06;5068644;28;20033;-77
2023/07/02 08:28:41;;;;;;;13.13;4.75;;;;;;;20.52;49.99;100864.91;5067229;28;20143;-76
2023/07/02 08:31:08;;;;;;;13.10;5.10;;;;;;;20.55;49.91;100866.47;5078615;28;20053;-77
2023/07/02 08:33:35;;;;;;;10.38;4.53;;;;;;;20.61;48.16;100887.44;5078800;28;20045;-76
2023/07/02 08:36:03;;;;;;;13.88;5.10;;;;;;;20.53;47.98;100876.44;5078117;28;20585;-75
2023/07/02 08:38:29;;;;;;;11.75;5.38;;;;;;;20.41;45.94;100889.75;5063415;28;20045;-74
2023/07/02 08:40:57;;;;;;;13.52;4.70;;;;;;;20.20;45.52;100892.13;5074946;28;20041;-75
2023/07/02 08:43:27;;;;;;;8.55;4.43;;;;;;;20.11;44.34;100887.44;5066526;28;20043;-74
2023/07/02 08:45:54;;;;;;;10.70;4.00;;;;;;;20.09;43.55;100892.91;5076173;28;20036;-74
2023/07/02 08:48:24;;;;;;;8.13;3.97;;;;;;;20.01;43.99;100888.06;5071281;28;20071;-75
2023/07/02 08:50:51;;;;;;;10.48;4.45;;;;;;;19.81;45.26;100894.75;5062966;28;20045;-75
2023/07/02 08:53:19;;;;;;;11.98;5.00;;;;;;;19.77;46.71;100890.59;5040122;28;20120;-74
2023/07/02 08:55:47;;;;;;;9.77;4.50;;;;;;;20.00;47.31;100886.34;5045969;28;20046;-74
2023/07/02 08:58:15;;;;;;;10.10;3.97;;;;;;;20.39;44.74;100890.81;5055929;28;20092;-75
2023/07/02 09:01:09;;;;;;;19.42;4.65;;;;;;;20.45;45.38;100888.56;5041552;28;20045;-74
2023/07/02 09:03:38;;;;;;;9.63;3.83;;;;;;;20.49;44.29;100897.22;5045386;28;20084;-74
2023/07/02 09:06:10;;;;;;;13.32;4.38;;;;;;;20.50;44.78;100884.72;5046725;28;20046;-71
2023/07/02 09:08:39;;;;;;;10.97;4.40;;;;;;;20.41;44.96;100894.25;5044868;28;20052;-70
2023/07/02 09:11:15;;;;;;;13.93;5.13;;;;;;;20.27;46.06;100897.91;5039871;28;20577;-75
2023/07/02 09:13:48;;;;;;;10.57;4.63;;;;;;;20.09;46.59;100892.91;5037297;28;20049;-76
2023/07/02 09:16:33;;;;;;;13.98;4.50;;;;;;;19.94;46.62;100891.28;5043978;28;20042;-75
2023/07/02 09:19:12;;;;;;;9.57;3.78;;;;;;;19.85;47.49;100907.00;5046262;28;20536;-76
2023/07/02 09:21:47;;;;;;;13.52;4.63;;;;;;;19.79;46.19;100911.88;5044919;28;20042;-77
2023/07/02 09:24:23;;;;;;;11.70;4.22;;;;;;;19.85;46.16;100906.09;5044138;28;20081;-75
2023/07/02 09:26:53;;;;;;;7.32;3.22;;;;;;;19.87;44.08;100922.94;5045932;28;20033;-76
2023/07/02 09:29:24;;;;;;;9.65;3.85;;;;;;;19.94;44.95;100910.00;5038456;28;20569;-76
2023/07/02 09:31:51;;;;;;;10.10;4.07;;;;;;;20.05;44.09;100904.75;5034192;28;20124;-75
2023/07/02 09:34:41;;;;;;;10.30;3.85;;;;;;;20.11;44.94;100907.00;5035236;28;20069;-76
2023/07/02 09:37:09;;;;;;;12.30;4.50;;;;;;;20.13;45.17;100909.59;5035252;28;20061;-75
2023/07/02 09:39:36;;;;;;;9.93;4.57;;;;;;;19.99;45.49;100903.38;5030792;28;20157;-76
2023/07/02 09:42:07;;;;;;;11.13;4.20;;;;;;;20.00;46.10;100904.22;5027298;28;20049;-75
2023/07/02 09:44:35;;;;;;;11.48;4.30;;;;;;;20.16;46.61;100910.22;5035154;28;20694;-76
2023/07/02 09:47:09;;;;;;;11.52;4.57;;;;;;;20.47;46.48;100908.06;5028484;28;20037;-76
2023/07/02 09:49:39;;;;;;;10.37;4.23;;;;;;;20.64;44.62;100906.00;5049311;28;20065;-75
2023/07/02 09:52:09;;;;;;;10.30;4.22;;;;;;;20.69;44.12;100908.34;5061154;28;20041;-77
2023/07/02 09:54:41;;;;;;;11.38;4.38;;;;;;;20.76;42.32;100898.91;5051692;28;20856;-75
2023/07/02 09:57:09;;;;;;;11.63;4.05;;;;;;;20.63;42.64;100888.19;5061035;28;20048;-74
2023/07/02 09:59:39;;;;;;;8.77;3.90;;;;;;;20.85;43.06;100886.69;5055181;28;20048;-74
2023/07/02 10:02:10;;;;;;;12.13;4.10;;;;;;;21.06;41.94;100898.50;5054283;28;20053;-75
2023/07/02 10:04:47;;;;;;;14.25;4.65;;;;;;;21.33;41.27;100886.69;5061852;28;20045;-76
2023/07/02 10:07:28;;;;;;;9.30;3.88;;;;;;;21.65;40.43;100896.00;5065495;28;20116;-75
2023/07/02 10:09:55;;;;;;;9.80;3.90;;;;;;;21.75;41.02;100888.06;5055871;28;20045;-74
2023/07/02 10:12:28;;;;;;;10.05;4.68;;;;;;;21.75;41.84;100893.44;5057824;28;20483;-74
2023/07/02 10:14:59;;;;;;;9.50;4.15;;;;;;;21.89;41.71;100903.97;5066312;28;20560;-75
2023/07/02 10:17:30;;;;;;;11.55;4.35;;;;;;;22.31;41.45;100900.72;5065883;28;20128;-76
2023/07/02 10:20:11;;;;;;;6.78;3.25;;;;;;;22.53;39.18;100901.72;5063072;28;20041;-77
2023/07/02 10:22:54;;;;;;;9.05;3.78;;;;;;;22.64;40.16;100904.41;5077174;28;20581;-77
2023/07/02 10:25:30;;;;;;;15.10;4.45;;;;;;;22.89;39.42;100910.50;5088351;28;20526;-77
2023/07/02 10:27:59;;;;;;;12.75;4.30;;;;;;;22.70;39.26;100908.44;5070392;28;20472;-75
2023/07/02 10:30:39;;;;;;;10.85;4.55;;;;;;;22.83;39.31;100916.34;5075570;28;20048;-76
2023/07/02 10:33:09;;;;;;;13.43;4.47;;;;;;;23.01;39.80;100911.31;5071657;28;20048;-76
2023/07/02 10:35:37;;;;;;;13.60;4.50;;;;;;;22.98;39.54;100914.25;5067822;28;20533;-76
2023/07/02 10:38:06;;;;;;;11.88;4.68;;;;;;;23.10;39.99;100907.88;5066346;28;20562;-76
2023/07/02 10:40:34;;;;;;;10.27;4.53;;;;;;;22.90;40.42;100912.19;5077482;28;20048;-76
2023/07/02 10:43:01;;;;;;;13.68;5.03;;;;;;;23.01;39.28;100927.44;5071593;28;20638;-76
2023/07/02 10:45:33;;;;;;;9.65;3.92;;;;;;;23.10;39.77;100922.16;5070740;28;20536;-76
2023/07/02 10:48:09;;;;;;;13.77;4.50;;;;;;;23.24;40.05;100913.00;5066186;28;20618;-76
2023/07/02 10:50:36;;;;;;;13.35;3.92;;;;;;;23.35;39.38;100924.69;5067423;28;20384;-76
2023/07/02 10:53:03;;;;;;;7.47;3.53;;;;;;;23.30;38.94;100932.28;5074901;28;20077;-76
2023/07/02 10:55:31;;;;;;;10.48;4.57;;;;;;;23.27;39.42;100917.25;5075607;28;20039;-76
2023/07/02 10:58:09;;;;;;;11.52;4.20;;;;;;;23.03;39.20;100922.81;5076284;28;20048;-75
2023/07/02 11:00:51;;;;;;;9.73;3.80;;;;;;;22.83;39.33;100925.28;5074795;28;20579;-76
2023/07/02 11:03:21;;;;;;;9.57;4.47;;;;;;;22.73;40.62;100916.25;5063483;28;21033;-75
2023/07/02 11:05:50;;;;;;;12.13;4.65;;;;;;;22.73;40.21;100919.78;5068190;28;20048;-74
2023/07/02 11:08:21;;;;;;;11.63;3.88;;;;;;;22.37;39.24;100928.91;5074551;28;20049;-74
2023/07/02 11:10:48;;;;;;;14.60;4.63;;;;;;;22.03;40.66;100927.91;5069484;28;20044;-74
2023/07/02 11:13:20;;;;;;;13.40;4.32;;;;;;;21.84;41.17;100932.97;5062081;28;20053;-73
2023/07/02 11:15:47;;;;;;;11.02;4.20;;;;;;;21.76;40.83;100928.22;5063165;28;20212;-74
2023/07/02 11:18:18;;;;;;;14.27;4.03;;;;;;;21.86;41.39;100929.22;5082521;28;20564;-75
2023/07/02 11:20:46;;;;;;;12.30;4.72;;;;;;;22.11;41.41;100945.25;5069478;28;20099;-75
2023/07/02 11:23:18;;;;;;;19.40;4.80;;;;;;;22.29;41.00;100933.06;5066697;28;20068;-76